Schrunz, Liechtenstein
Current Conditions -  °F | °C
As of 12:20 AM on Friday 19 Dec 2014 (Local Time) from LSZR Reporting Station
Broken Clouds Broken Clouds  
Wind Chill:   Ceiling: 3100
Heat Index:   Visibility: 6mi
Dew Point:   Wind: 1mph
Humidity: 100%   Direction: NA
Pressure: 30.21"   Gusts: NA
Location:  47.08°N, 9.93°E
Report Text: LSZR 182220Z AUTO VRB01KT 9999 BKN031 09/09 Q1023
Loading
Personal Weather Stations






























Interactive Weather Map New forecast layout! Learn more

10-Day Weather Forecast

Advertisements
Track Severe Weather on mobile